sensor_id;sensor_type;location;lat;lon;timestamp;P1;durP1;ratioP1;P2;durP2;ratioP2
75064;SDS011;63646;49.110;9.140;2023-02-15T05:02:35;5.15;;;3.28;;
75064;SDS011;63646;49.110;9.140;2023-02-15T05:05:01;4.10;;;2.55;;
75064;SDS011;63646;49.110;9.140;2023-02-15T05:07:27;4.13;;;2.80;;
75064;SDS011;63646;49.110;9.140;2023-02-15T05:09:52;8.52;;;3.28;;
75064;SDS011;63646;49.110;9.140;2023-02-15T05:12:17;4.93;;;3.08;;
75064;SDS011;63646;49.110;9.140;2023-02-15T05:14:43;4.00;;;2.50;;
75064;SDS011;63646;49.110;9.140;2023-02-15T05:17:08;4.80;;;2.80;;
75064;SDS011;63646;49.110;9.140;2023-02-15T05:19:34;4.65;;;3.05;;
75064;SDS011;63646;49.110;9.140;2023-02-15T05:21:59;4.22;;;2.63;;
75064;SDS011;63646;49.110;9.140;2023-02-15T05:24:25;3.40;;;2.80;;
75064;SDS011;63646;49.110;9.140;2023-02-15T05:27:12;6.82;;;2.90;;
75064;SDS011;63646;49.110;9.140;2023-02-15T05:29:56;6.97;;;2.60;;
75064;SDS011;63646;49.110;9.140;2023-02-15T05:32:22;5.05;;;2.88;;
75064;SDS011;63646;49.110;9.140;2023-02-15T05:34:47;4.07;;;2.70;;
75064;SDS011;63646;49.110;9.140;2023-02-15T05:37:13;4.47;;;2.53;;
75064;SDS011;63646;49.110;9.140;2023-02-15T05:39:38;3.85;;;2.70;;
75064;SDS011;63646;49.110;9.140;2023-02-15T05:42:03;4.78;;;2.70;;
75064;SDS011;63646;49.110;9.140;2023-02-15T05:44:29;4.07;;;2.60;;
75064;SDS011;63646;49.110;9.140;2023-02-15T05:46:54;5.15;;;2.88;;
75064;SDS011;63646;49.110;9.140;2023-02-15T05:49:20;4.32;;;2.45;;
75064;SDS011;63646;49.110;9.140;2023-02-15T05:51:45;3.78;;;2.47;;
75064;SDS011;63646;49.110;9.140;2023-02-15T05:54:11;6.07;;;2.92;;
75064;SDS011;63646;49.110;9.140;2023-02-15T05:56:36;4.45;;;2.72;;
75064;SDS011;63646;49.110;9.140;2023-02-15T05:59:02;7.07;;;2.80;;
75064;SDS011;63646;49.110;9.140;2023-02-15T06:01:27;6.50;;;2.83;;
75064;SDS011;63646;49.110;9.140;2023-02-15T06:03:53;6.97;;;3.28;;
75064;SDS011;63646;49.110;9.140;2023-02-15T06:06:19;4.57;;;2.80;;
75064;SDS011;63646;49.110;9.140;2023-02-15T06:08:44;5.38;;;2.80;;
75064;SDS011;63646;49.110;9.140;2023-02-15T06:11:10;6.55;;;2.50;;
75064;SDS011;63646;49.110;9.140;2023-02-15T06:13:35;5.35;;;2.83;;
75064;SDS011;63646;49.110;9.140;2023-02-15T06:16:01;5.63;;;2.85;;
75064;SDS011;63646;49.110;9.140;2023-02-15T06:18:27;6.95;;;2.53;;
75064;SDS011;63646;49.110;9.140;2023-02-15T06:20:52;4.88;;;2.90;;
75064;SDS011;63646;49.110;9.140;2023-02-15T06:23:18;5.90;;;2.85;;
75064;SDS011;63646;49.110;9.140;2023-02-15T06:25:44;15.27;;;7.80;;
75064;SDS011;63646;49.110;9.140;2023-02-15T06:28:10;11.32;;;5.45;;
75064;SDS011;63646;49.110;9.140;2023-02-15T06:30:35;8.63;;;3.38;;
75064;SDS011;63646;49.110;9.140;2023-02-15T06:33:01;5.00;;;3.15;;
75064;SDS011;63646;49.110;9.140;2023-02-15T06:35:27;4.97;;;3.35;;
75064;SDS011;63646;49.110;9.140;2023-02-15T06:37:52;6.47;;;3.25;;
75064;SDS011;63646;49.110;9.140;2023-02-15T06:40:17;7.55;;;3.05;;
75064;SDS011;63646;49.110;9.140;2023-02-15T06:42:43;6.25;;;3.05;;
75064;SDS011;63646;49.110;9.140;2023-02-15T06:45:09;4.93;;;3.25;;
75064;SDS011;63646;49.110;9.140;2023-02-15T06:47:35;4.93;;;2.97;;
75064;SDS011;63646;49.110;9.140;2023-02-15T06:50:01;5.70;;;3.25;;
75064;SDS011;63646;49.110;9.140;2023-02-15T06:52:27;4.20;;;3.33;;
75064;SDS011;63646;49.110;9.140;2023-02-15T06:54:54;7.65;;;3.10;;
75064;SDS011;63646;49.110;9.140;2023-02-15T06:57:20;5.38;;;2.63;;
75064;SDS011;63646;49.110;9.140;2023-02-15T06:59:45;4.75;;;2.72;;
75064;SDS011;63646;49.110;9.140;2023-02-15T07:02:11;8.15;;;3.10;;
75064;SDS011;63646;49.110;9.140;2023-02-15T07:04:37;7.80;;;3.17;;
75064;SDS011;63646;49.110;9.140;2023-02-15T07:07:02;5.20;;;2.78;;
75064;SDS011;63646;49.110;9.140;2023-02-15T07:09:28;6.10;;;2.70;;
75064;SDS011;63646;49.110;9.140;2023-02-15T07:11:53;7.13;;;3.20;;
75064;SDS011;63646;49.110;9.140;2023-02-15T07:14:37;6.78;;;4.70;;
75064;SDS011;63646;49.110;9.140;2023-02-15T07:17:03;8.43;;;5.20;;
75064;SDS011;63646;49.110;9.140;2023-02-15T07:19:28;11.70;;;5.95;;
75064;SDS011;63646;49.110;9.140;2023-02-15T07:21:54;8.68;;;5.63;;
75064;SDS011;63646;49.110;9.140;2023-02-15T07:24:19;8.77;;;5.70;;
75064;SDS011;63646;49.110;9.140;2023-02-15T07:26:45;6.90;;;4.65;;
75064;SDS011;63646;49.110;9.140;2023-02-15T07:29:10;7.30;;;5.15;;
75064;SDS011;63646;49.110;9.140;2023-02-15T07:31:35;9.15;;;5.53;;
75064;SDS011;63646;49.110;9.140;2023-02-15T07:34:01;7.35;;;5.22;;
75064;SDS011;63646;49.110;9.140;2023-02-15T07:36:26;6.70;;;5.40;;
75064;SDS011;63646;49.110;9.140;2023-02-15T07:38:52;9.15;;;6.20;;
75064;SDS011;63646;49.110;9.140;2023-02-15T07:41:17;8.30;;;5.75;;
75064;SDS011;63646;49.110;9.140;2023-02-15T07:43:43;9.50;;;5.32;;
75064;SDS011;63646;49.110;9.140;2023-02-15T07:46:13;10.80;;;4.47;;
75064;SDS011;63646;49.110;9.140;2023-02-15T07:48:40;9.70;;;4.30;;
75064;SDS011;63646;49.110;9.140;2023-02-15T07:51:06;6.90;;;4.45;;
75064;SDS011;63646;49.110;9.140;2023-02-15T07:53:34;6.00;;;3.90;;
75064;SDS011;63646;49.110;9.140;2023-02-15T07:56:01;6.18;;;3.75;;
75064;SDS011;63646;49.110;9.140;2023-02-15T07:58:28;4.68;;;3.63;;
75064;SDS011;63646;49.110;9.140;2023-02-15T08:01:13;7.30;;;3.90;;
75064;SDS011;63646;49.110;9.140;2023-02-15T08:03:39;5.30;;;3.40;;
75064;SDS011;63646;49.110;9.140;2023-02-15T08:06:05;8.05;;;3.45;;
75064;SDS011;63646;49.110;9.140;2023-02-15T08:08:32;6.35;;;3.42;;
75064;SDS011;63646;49.110;9.140;2023-02-15T08:13:44;6.05;;;3.15;;
75064;SDS011;63646;49.110;9.140;2023-02-15T08:16:23;6.10;;;3.38;;
75064;SDS011;63646;49.110;9.140;2023-02-15T08:18:51;5.55;;;3.25;;
75064;SDS011;63646;49.110;9.140;2023-02-15T08:21:17;5.25;;;3.33;;
75064;SDS011;63646;49.110;9.140;2023-02-15T08:26:09;9.32;;;3.22;;
75064;SDS011;63646;49.110;9.140;2023-02-15T08:28:35;4.82;;;3.17;;
75064;SDS011;63646;49.110;9.140;2023-02-15T08:31:04;4.47;;;3.10;;
75064;SDS011;63646;49.110;9.140;2023-02-15T08:33:35;3.15;;;2.70;;
75064;SDS011;63646;49.110;9.140;2023-02-15T08:36:02;4.60;;;2.88;;
75064;SDS011;63646;49.110;9.140;2023-02-15T08:38:29;4.95;;;3.28;;
75064;SDS011;63646;49.110;9.140;2023-02-15T08:40:55;3.83;;;2.95;;
75064;SDS011;63646;49.110;9.140;2023-02-15T08:43:20;4.97;;;3.20;;
75064;SDS011;63646;49.110;9.140;2023-02-15T08:45:46;6.43;;;3.03;;
75064;SDS011;63646;49.110;9.140;2023-02-15T08:48:11;4.65;;;3.00;;
75064;SDS011;63646;49.110;9.140;2023-02-15T08:50:37;4.40;;;3.50;;
75064;SDS011;63646;49.110;9.140;2023-02-15T08:53:02;3.08;;;2.72;;
75064;SDS011;63646;49.110;9.140;2023-02-15T08:55:28;6.88;;;3.30;;
75064;SDS011;63646;49.110;9.140;2023-02-15T08:57:54;6.80;;;4.10;;
75064;SDS011;63646;49.110;9.140;2023-02-15T09:00:20;3.33;;;2.80;;
75064;SDS011;63646;49.110;9.140;2023-02-15T09:02:47;5.03;;;3.17;;
75064;SDS011;63646;49.110;9.140;2023-02-15T09:05:13;8.70;;;5.30;;
75064;SDS011;63646;49.110;9.140;2023-02-15T09:07:38;8.98;;;4.82;;
75064;SDS011;63646;49.110;9.140;2023-02-15T09:10:04;4.50;;;3.50;;
75064;SDS011;63646;49.110;9.140;2023-02-15T09:12:31;5.75;;;3.25;;
75064;SDS011;63646;49.110;9.140;2023-02-15T09:14:57;7.57;;;3.05;;
75064;SDS011;63646;49.110;9.140;2023-02-15T09:17:22;5.90;;;3.33;;
75064;SDS011;63646;49.110;9.140;2023-02-15T09:19:48;8.30;;;3.50;;
75064;SDS011;63646;49.110;9.140;2023-02-15T09:22:14;7.18;;;3.13;;
75064;SDS011;63646;49.110;9.140;2023-02-15T09:24:40;6.25;;;3.10;;
75064;SDS011;63646;49.110;9.140;2023-02-15T09:27:05;12.85;;;5.57;;
75064;SDS011;63646;49.110;9.140;2023-02-15T09:29:31;5.80;;;3.35;;
75064;SDS011;63646;49.110;9.140;2023-02-15T09:31:56;5.43;;;3.33;;
75064;SDS011;63646;49.110;9.140;2023-02-15T09:34:22;7.70;;;3.08;;
75064;SDS011;63646;49.110;9.140;2023-02-15T09:36:47;4.18;;;3.20;;
75064;SDS011;63646;49.110;9.140;2023-02-15T09:39:20;5.22;;;3.33;;
75064;SDS011;63646;49.110;9.140;2023-02-15T09:47:09;5.80;;;3.10;;
75064;SDS011;63646;49.110;9.140;2023-02-15T09:55:07;6.15;;;3.08;;
75064;SDS011;63646;49.110;9.140;2023-02-15T09:58:01;5.35;;;3.30;;
75064;SDS011;63646;49.110;9.140;2023-02-15T10:04:02;3.90;;;2.83;;
75064;SDS011;63646;49.110;9.140;2023-02-15T10:06:44;4.15;;;2.97;;
75064;SDS011;63646;49.110;9.140;2023-02-15T10:23:54;4.82;;;3.60;;
75064;SDS011;63646;49.110;9.140;2023-02-15T10:29:08;6.88;;;3.63;;
75064;SDS011;63646;49.110;9.140;2023-02-15T10:32:04;5.85;;;3.08;;
75064;SDS011;63646;49.110;9.140;2023-02-15T10:34:43;5.63;;;3.10;;
75064;SDS011;63646;49.110;9.140;2023-02-15T10:48:41;5.05;;;2.92;;
75064;SDS011;63646;49.110;9.140;2023-02-15T10:51:34;5.13;;;3.05;;
75064;SDS011;63646;49.110;9.140;2023-02-15T11:05:30;6.03;;;3.03;;
75064;SDS011;63646;49.110;9.140;2023-02-15T11:08:43;4.65;;;2.90;;
75064;SDS011;63646;49.110;9.140;2023-02-15T11:11:21;5.60;;;2.85;;
75064;SDS011;63646;49.110;9.140;2023-02-15T11:13:52;10.95;;;2.80;;
75064;SDS011;63646;49.110;9.140;2023-02-15T11:16:24;5.43;;;3.17;;
75064;SDS011;63646;49.110;9.140;2023-02-15T11:21:32;10.70;;;3.40;;
75064;SDS011;63646;49.110;9.140;2023-02-15T11:24:07;14.13;;;10.55;;
75064;SDS011;63646;49.110;9.140;2023-02-15T11:26:41;38.55;;;29.88;;
75064;SDS011;63646;49.110;9.140;2023-02-15T11:31:54;14.60;;;9.68;;
75064;SDS011;63646;49.110;9.140;2023-02-15T11:37:01;8.60;;;6.97;;
75064;SDS011;63646;49.110;9.140;2023-02-15T11:39:42;9.65;;;7.13;;
75064;SDS011;63646;49.110;9.140;2023-02-15T11:42:16;10.35;;;7.50;;
75064;SDS011;63646;49.110;9.140;2023-02-15T11:47:47;19.98;;;16.45;;
75064;SDS011;63646;49.110;9.140;2023-02-15T11:50:18;63.88;;;47.88;;
75064;SDS011;63646;49.110;9.140;2023-02-15T11:52:47;61.15;;;42.65;;
75064;SDS011;63646;49.110;9.140;2023-02-15T11:55:18;41.05;;;31.58;;
75064;SDS011;63646;49.110;9.140;2023-02-15T11:57:55;37.53;;;27.10;;
75064;SDS011;63646;49.110;9.140;2023-02-15T12:03:19;34.50;;;26.65;;
75064;SDS011;63646;49.110;9.140;2023-02-15T12:05:49;35.10;;;26.23;;
75064;SDS011;63646;49.110;9.140;2023-02-15T12:08:19;34.47;;;24.50;;
75064;SDS011;63646;49.110;9.140;2023-02-15T12:11:03;35.85;;;24.08;;
75064;SDS011;63646;49.110;9.140;2023-02-15T12:13:37;33.03;;;22.83;;
75064;SDS011;63646;49.110;9.140;2023-02-15T12:16:19;30.67;;;22.17;;
75064;SDS011;63646;49.110;9.140;2023-02-15T12:18:45;32.33;;;21.67;;
75064;SDS011;63646;49.110;9.140;2023-02-15T12:21:14;31.52;;;20.83;;
75064;SDS011;63646;49.110;9.140;2023-02-15T12:23:53;33.97;;;20.80;;
75064;SDS011;63646;49.110;9.140;2023-02-15T12:29:07;24.02;;;18.35;;
75064;SDS011;63646;49.110;9.140;2023-02-15T12:31:40;23.55;;;17.73;;
75064;SDS011;63646;49.110;9.140;2023-02-15T12:34:12;24.75;;;17.70;;
75064;SDS011;63646;49.110;9.140;2023-02-15T12:37:09;23.92;;;16.50;;
75064;SDS011;63646;49.110;9.140;2023-02-15T12:39:44;22.58;;;15.90;;
75064;SDS011;63646;49.110;9.140;2023-02-15T12:42:17;20.45;;;15.95;;
75064;SDS011;63646;49.110;9.140;2023-02-15T12:44:54;17.02;;;11.98;;
75064;SDS011;63646;49.110;9.140;2023-02-15T12:47:22;16.92;;;12.52;;
75064;SDS011;63646;49.110;9.140;2023-02-15T12:52:34;15.98;;;11.73;;
75064;SDS011;63646;49.110;9.140;2023-02-15T12:57:43;14.82;;;10.65;;
75064;SDS011;63646;49.110;9.140;2023-02-15T13:02:43;13.15;;;9.38;;
75064;SDS011;63646;49.110;9.140;2023-02-15T13:07:56;12.48;;;8.82;;
75064;SDS011;63646;49.110;9.140;2023-02-15T13:10:35;13.68;;;8.80;;
75064;SDS011;63646;49.110;9.140;2023-02-15T13:13:16;10.98;;;8.10;;
75064;SDS011;63646;49.110;9.140;2023-02-15T13:15:49;11.25;;;7.97;;
75064;SDS011;63646;49.110;9.140;2023-02-15T13:18:20;11.95;;;8.10;;
75064;SDS011;63646;49.110;9.140;2023-02-15T13:21:04;10.48;;;7.63;;
75064;SDS011;63646;49.110;9.140;2023-02-15T13:23:31;10.70;;;7.60;;
75064;SDS011;63646;49.110;9.140;2023-02-15T13:25:58;11.80;;;8.82;;
75064;SDS011;63646;49.110;9.140;2023-02-15T13:28:41;12.27;;;7.50;;
75064;SDS011;63646;49.110;9.140;2023-02-15T13:31:13;11.68;;;7.15;;
75064;SDS011;63646;49.110;9.140;2023-02-15T13:33:42;14.15;;;7.32;;
75064;SDS011;63646;49.110;9.140;2023-02-15T13:39:09;8.93;;;6.40;;
75064;SDS011;63646;49.110;9.140;2023-02-15T13:42:00;9.13;;;7.03;;
75064;SDS011;63646;49.110;9.140;2023-02-15T13:47:16;8.93;;;6.78;;
75064;SDS011;63646;49.110;9.140;2023-02-15T13:50:02;8.40;;;6.18;;
75064;SDS011;63646;49.110;9.140;2023-02-15T13:52:29;11.60;;;6.38;;
75064;SDS011;63646;49.110;9.140;2023-02-15T14:00:44;9.93;;;5.90;;
75064;SDS011;63646;49.110;9.140;2023-02-15T14:06:26;7.60;;;5.97;;
75064;SDS011;63646;49.110;9.140;2023-02-15T14:19:50;9.32;;;5.50;;
75064;SDS011;63646;49.110;9.140;2023-02-15T14:22:35;8.32;;;5.43;;
75064;SDS011;63646;49.110;9.140;2023-02-15T14:25:13;9.20;;;5.25;;
75064;SDS011;63646;49.110;9.140;2023-02-15T14:30:48;7.03;;;5.55;;
75064;SDS011;63646;49.110;9.140;2023-02-15T14:35:49;10.05;;;5.85;;
75064;SDS011;63646;49.110;9.140;2023-02-15T14:38:32;9.82;;;5.22;;
75064;SDS011;63646;49.110;9.140;2023-02-15T14:41:20;8.32;;;5.38;;
75064;SDS011;63646;49.110;9.140;2023-02-15T14:43:59;6.78;;;5.50;;
75064;SDS011;63646;49.110;9.140;2023-02-15T14:49:32;12.10;;;5.45;;
75064;SDS011;63646;49.110;9.140;2023-02-15T14:52:02;8.45;;;5.53;;
75064;SDS011;63646;49.110;9.140;2023-02-15T14:59:25;7.63;;;5.03;;
75064;SDS011;63646;49.110;9.140;2023-02-15T15:07:02;9.75;;;5.35;;
75064;SDS011;63646;49.110;9.140;2023-02-15T15:14:47;6.53;;;4.95;;
75064;SDS011;63646;49.110;9.140;2023-02-15T15:17:51;7.00;;;4.63;;
75064;SDS011;63646;49.110;9.140;2023-02-15T15:22:25;5.47;;;4.60;;
75064;SDS011;63646;49.110;9.140;2023-02-15T15:47:12;7.32;;;4.57;;
75064;SDS011;63646;49.110;9.140;2023-02-15T15:50:14;6.47;;;4.70;;
75064;SDS011;63646;49.110;9.140;2023-02-15T15:55:20;7.32;;;4.10;;
75064;SDS011;63646;49.110;9.140;2023-02-15T15:57:58;6.25;;;4.25;;
75064;SDS011;63646;49.110;9.140;2023-02-15T16:00:37;8.70;;;4.38;;
75064;SDS011;63646;49.110;9.140;2023-02-15T16:03:16;7.30;;;4.40;;
75064;SDS011;63646;49.110;9.140;2023-02-15T16:05:45;10.93;;;5.03;;
75064;SDS011;63646;49.110;9.140;2023-02-15T16:08:10;7.85;;;4.20;;
75064;SDS011;63646;49.110;9.140;2023-02-15T16:10:36;8.23;;;4.28;;
75064;SDS011;63646;49.110;9.140;2023-02-15T16:13:02;7.53;;;4.78;;
75064;SDS011;63646;49.110;9.140;2023-02-15T16:15:36;6.00;;;4.20;;
75064;SDS011;63646;49.110;9.140;2023-02-15T16:18:15;7.55;;;4.25;;
75064;SDS011;63646;49.110;9.140;2023-02-15T16:20:42;6.78;;;4.43;;
75064;SDS011;63646;49.110;9.140;2023-02-15T16:23:22;9.48;;;4.28;;
75064;SDS011;63646;49.110;9.140;2023-02-15T16:28:51;8.48;;;3.95;;
75064;SDS011;63646;49.110;9.140;2023-02-15T16:31:18;7.15;;;3.92;;
75064;SDS011;63646;49.110;9.140;2023-02-15T16:33:44;5.80;;;3.97;;
75064;SDS011;63646;49.110;9.140;2023-02-15T16:36:26;5.72;;;3.90;;
75064;SDS011;63646;49.110;9.140;2023-02-15T16:41:25;7.15;;;4.43;;
75064;SDS011;63646;49.110;9.140;2023-02-15T16:43:53;6.53;;;4.43;;
75064;SDS011;63646;49.110;9.140;2023-02-15T16:49:04;6.00;;;4.18;;
75064;SDS011;63646;49.110;9.140;2023-02-15T16:51:39;8.63;;;4.35;;
75064;SDS011;63646;49.110;9.140;2023-02-15T16:54:13;7.13;;;4.35;;
75064;SDS011;63646;49.110;9.140;2023-02-15T16:56:44;7.72;;;3.97;;
75064;SDS011;63646;49.110;9.140;2023-02-15T16:59:21;7.40;;;3.92;;
75064;SDS011;63646;49.110;9.140;2023-02-15T17:01:54;5.82;;;4.22;;
75064;SDS011;63646;49.110;9.140;2023-02-15T17:07:19;7.63;;;3.95;;
75064;SDS011;63646;49.110;9.140;2023-02-15T17:10:00;11.40;;;3.83;;
75064;SDS011;63646;49.110;9.140;2023-02-15T17:15:27;8.30;;;4.22;;
75064;SDS011;63646;49.110;9.140;2023-02-15T17:17:56;8.13;;;3.63;;
75064;SDS011;63646;49.110;9.140;2023-02-15T17:20:35;6.55;;;3.55;;
75064;SDS011;63646;49.110;9.140;2023-02-15T17:23:07;8.50;;;4.20;;
75064;SDS011;63646;49.110;9.140;2023-02-15T17:26:10;9.70;;;3.50;;
75064;SDS011;63646;49.110;9.140;2023-02-15T17:28:40;6.22;;;3.45;;
75064;SDS011;63646;49.110;9.140;2023-02-15T17:31:12;6.35;;;3.72;;
75064;SDS011;63646;49.110;9.140;2023-02-15T17:33:40;5.78;;;3.70;;
75064;SDS011;63646;49.110;9.140;2023-02-15T17:41:22;5.45;;;3.97;;
75064;SDS011;63646;49.110;9.140;2023-02-15T17:44:06;5.35;;;3.72;;
75064;SDS011;63646;49.110;9.140;2023-02-15T17:46:34;4.43;;;3.85;;
75064;SDS011;63646;49.110;9.140;2023-02-15T17:49:01;6.55;;;3.85;;
75064;SDS011;63646;49.110;9.140;2023-02-15T17:51:27;6.70;;;3.85;;
75064;SDS011;63646;49.110;9.140;2023-02-15T17:53:53;4.72;;;3.67;;
75064;SDS011;63646;49.110;9.140;2023-02-15T17:56:37;6.60;;;4.13;;
75064;SDS011;63646;49.110;9.140;2023-02-15T17:59:03;4.82;;;3.83;;
75064;SDS011;63646;49.110;9.140;2023-02-15T18:01:32;6.65;;;3.83;;
75064;SDS011;63646;49.110;9.140;2023-02-15T18:04:18;6.10;;;3.58;;
75064;SDS011;63646;49.110;9.140;2023-02-15T18:07:03;6.50;;;3.90;;
75064;SDS011;63646;49.110;9.140;2023-02-15T18:09:47;4.68;;;3.97;;
75064;SDS011;63646;49.110;9.140;2023-02-15T18:12:32;4.68;;;3.35;;
75064;SDS011;63646;49.110;9.140;2023-02-15T18:15:00;5.57;;;3.42;;
75064;SDS011;63646;49.110;9.140;2023-02-15T18:17:34;7.20;;;4.10;;
75064;SDS011;63646;49.110;9.140;2023-02-15T18:20:05;6.68;;;3.80;;
75064;SDS011;63646;49.110;9.140;2023-02-15T18:22:39;6.10;;;3.97;;
75064;SDS011;63646;49.110;9.140;2023-02-15T18:25:05;7.47;;;3.63;;
75064;SDS011;63646;49.110;9.140;2023-02-15T18:27:44;4.90;;;3.60;;
75064;SDS011;63646;49.110;9.140;2023-02-15T18:30:14;6.43;;;3.67;;
75064;SDS011;63646;49.110;9.140;2023-02-15T18:32:41;7.35;;;4.00;;
75064;SDS011;63646;49.110;9.140;2023-02-15T18:35:12;5.93;;;3.83;;
75064;SDS011;63646;49.110;9.140;2023-02-15T18:37:44;6.15;;;3.80;;
75064;SDS011;63646;49.110;9.140;2023-02-15T18:40:17;6.90;;;3.47;;
75064;SDS011;63646;49.110;9.140;2023-02-15T18:42:44;4.10;;;3.35;;
75064;SDS011;63646;49.110;9.140;2023-02-15T18:45:46;5.38;;;3.90;;
75064;SDS011;63646;49.110;9.140;2023-02-15T18:48:05;5.38;;;3.63;;
75064;SDS011;63646;49.110;9.140;2023-02-15T18:50:34;5.93;;;3.97;;
75064;SDS011;63646;49.110;9.140;2023-02-15T18:53:03;7.18;;;3.88;;
75064;SDS011;63646;49.110;9.140;2023-02-15T18:55:34;6.85;;;3.72;;
75064;SDS011;63646;49.110;9.140;2023-02-15T18:58:00;4.50;;;3.40;;
75064;SDS011;63646;49.110;9.140;2023-02-15T19:00:27;5.00;;;3.70;;
75064;SDS011;63646;49.110;9.140;2023-02-15T19:02:56;10.30;;;3.40;;
75064;SDS011;63646;49.110;9.140;2023-02-15T19:05:22;4.68;;;3.75;;
75064;SDS011;63646;49.110;9.140;2023-02-15T19:07:51;5.90;;;3.20;;
75064;SDS011;63646;49.110;9.140;2023-02-15T19:10:18;5.65;;;3.80;;
75064;SDS011;63646;49.110;9.140;2023-02-15T19:12:46;6.07;;;3.47;;
75064;SDS011;63646;49.110;9.140;2023-02-15T19:15:17;8.90;;;4.85;;
75064;SDS011;63646;49.110;9.140;2023-02-15T19:17:44;7.72;;;4.00;;
75064;SDS011;63646;49.110;9.140;2023-02-15T19:20:14;4.93;;;3.47;;
75064;SDS011;63646;49.110;9.140;2023-02-15T19:22:44;8.77;;;4.30;;
75064;SDS011;63646;49.110;9.140;2023-02-15T19:25:13;4.70;;;3.83;;
75064;SDS011;63646;49.110;9.140;2023-02-15T19:27:43;9.13;;;3.70;;
75064;SDS011;63646;49.110;9.140;2023-02-15T19:30:14;9.48;;;4.13;;
75064;SDS011;63646;49.110;9.140;2023-02-15T19:32:42;6.22;;;4.20;;
75064;SDS011;63646;49.110;9.140;2023-02-15T19:35:16;6.88;;;4.15;;
75064;SDS011;63646;49.110;9.140;2023-02-15T19:37:44;6.93;;;4.38;;
75064;SDS011;63646;49.110;9.140;2023-02-15T19:40:17;7.22;;;3.95;;
75064;SDS011;63646;49.110;9.140;2023-02-15T19:42:51;8.75;;;3.92;;
75064;SDS011;63646;49.110;9.140;2023-02-15T19:45:20;6.32;;;3.70;;
75064;SDS011;63646;49.110;9.140;2023-02-15T19:47:48;5.90;;;4.03;;
75064;SDS011;63646;49.110;9.140;2023-02-15T19:50:19;6.45;;;3.97;;
75064;SDS011;63646;49.110;9.140;2023-02-15T19:52:46;6.45;;;3.90;;
75064;SDS011;63646;49.110;9.140;2023-02-15T19:55:17;9.70;;;3.75;;
75064;SDS011;63646;49.110;9.140;2023-02-15T19:57:48;7.78;;;3.75;;
75064;SDS011;63646;49.110;9.140;2023-02-15T20:00:15;9.85;;;4.10;;
75064;SDS011;63646;49.110;9.140;2023-02-15T20:02:45;9.23;;;4.25;;
75064;SDS011;63646;49.110;9.140;2023-02-15T20:05:11;11.55;;;3.72;;
75064;SDS011;63646;49.110;9.140;2023-02-15T20:07:37;8.70;;;4.22;;
75064;SDS011;63646;49.110;9.140;2023-02-15T20:10:03;4.68;;;3.45;;
75064;SDS011;63646;49.110;9.140;2023-02-15T20:12:41;9.60;;;4.20;;
75064;SDS011;63646;49.110;9.140;2023-02-15T20:15:25;5.90;;;3.55;;
75064;SDS011;63646;49.110;9.140;2023-02-15T20:20:17;7.85;;;3.70;;
75064;SDS011;63646;49.110;9.140;2023-02-15T20:22:44;10.23;;;3.97;;
75064;SDS011;63646;49.110;9.140;2023-02-15T20:25:14;6.10;;;3.97;;
75064;SDS011;63646;49.110;9.140;2023-02-15T20:27:44;6.80;;;4.00;;
75064;SDS011;63646;49.110;9.140;2023-02-15T20:30:13;7.53;;;4.38;;
75064;SDS011;63646;49.110;9.140;2023-02-15T20:32:41;6.85;;;4.10;;
75064;SDS011;63646;49.110;9.140;2023-02-15T20:35:07;7.32;;;3.72;;
75064;SDS011;63646;49.110;9.140;2023-02-15T20:37:37;6.63;;;3.67;;
75064;SDS011;63646;49.110;9.140;2023-02-15T20:40:04;6.18;;;3.70;;
75064;SDS011;63646;49.110;9.140;2023-02-15T20:42:40;7.50;;;3.88;;
75064;SDS011;63646;49.110;9.140;2023-02-15T20:47:43;6.75;;;3.95;;
75064;SDS011;63646;49.110;9.140;2023-02-15T20:50:16;8.77;;;3.47;;
75064;SDS011;63646;49.110;9.140;2023-02-15T20:52:47;7.05;;;4.05;;
75064;SDS011;63646;49.110;9.140;2023-02-15T20:55:15;4.25;;;3.60;;
75064;SDS011;63646;49.110;9.140;2023-02-15T20:57:53;7.60;;;3.95;;
75064;SDS011;63646;49.110;9.140;2023-02-15T21:00:19;7.07;;;3.55;;
75064;SDS011;63646;49.110;9.140;2023-02-15T21:02:50;6.53;;;3.60;;
75064;SDS011;63646;49.110;9.140;2023-02-15T21:05:39;7.07;;;4.30;;
75064;SDS011;63646;49.110;9.140;2023-02-15T21:08:15;5.65;;;3.72;;
75064;SDS011;63646;49.110;9.140;2023-02-15T21:10:42;7.55;;;3.75;;
75064;SDS011;63646;49.110;9.140;2023-02-15T21:15:49;6.28;;;3.50;;
75064;SDS011;63646;49.110;9.140;2023-02-15T21:18:18;5.93;;;3.50;;
75064;SDS011;63646;49.110;9.140;2023-02-15T21:20:48;5.38;;;3.85;;
75064;SDS011;63646;49.110;9.140;2023-02-15T21:23:17;6.38;;;4.10;;
75064;SDS011;63646;49.110;9.140;2023-02-15T21:25:45;8.43;;;3.90;;
75064;SDS011;63646;49.110;9.140;2023-02-15T21:28:18;4.90;;;3.47;;
75064;SDS011;63646;49.110;9.140;2023-02-15T21:30:46;4.82;;;3.30;;
75064;SDS011;63646;49.110;9.140;2023-02-15T21:33:12;7.50;;;3.70;;
75064;SDS011;63646;49.110;9.140;2023-02-15T21:35:39;6.78;;;3.78;;
75064;SDS011;63646;49.110;9.140;2023-02-15T21:38:05;4.30;;;3.45;;
75064;SDS011;63646;49.110;9.140;2023-02-15T21:40:32;6.03;;;3.22;;
75064;SDS011;63646;49.110;9.140;2023-02-15T21:42:58;6.90;;;3.35;;
75064;SDS011;63646;49.110;9.140;2023-02-15T21:45:42;5.28;;;3.67;;
75064;SDS011;63646;49.110;9.140;2023-02-15T21:48:26;4.90;;;3.53;;
75064;SDS011;63646;49.110;9.140;2023-02-15T21:50:52;4.18;;;3.42;;
75064;SDS011;63646;49.110;9.140;2023-02-15T21:53:40;6.22;;;3.60;;
75064;SDS011;63646;49.110;9.140;2023-02-15T21:56:11;6.00;;;3.50;;
75064;SDS011;63646;49.110;9.140;2023-02-15T21:58:38;5.13;;;4.03;;
